createdAt,value
2023-12-08T00:01:16.869Z,72.40
2023-12-08T00:03:44.924Z,72.40
2023-12-08T00:06:13.069Z,72.30
2023-12-08T00:08:41.849Z,72.30
2023-12-08T00:11:12.110Z,72.20
2023-12-08T00:13:39.592Z,72.10
2023-12-08T00:16:07.350Z,72.10
2023-12-08T00:18:35.033Z,72.00
2023-12-08T00:44:18.023Z,71.90
2023-12-08T00:46:45.505Z,71.60
2023-12-08T00:49:13.200Z,71.70
2023-12-08T00:51:40.985Z,71.70
2023-12-08T00:54:08.504Z,71.70
2023-12-08T00:56:36.078Z,71.70
2023-12-08T00:59:03.553Z,71.70
2023-12-08T01:01:31.159Z,71.60
2023-12-08T01:03:58.711Z,71.60
2023-12-08T01:06:26.184Z,71.60
2023-12-08T01:08:53.724Z,71.50
2023-12-08T01:11:21.163Z,71.50
2023-12-08T01:13:48.927Z,71.50
2023-12-08T01:16:16.968Z,71.40
2023-12-08T01:18:44.718Z,71.50
2023-12-08T01:21:12.504Z,71.50
2023-12-08T01:23:39.945Z,71.50
2023-12-08T01:26:10.597Z,71.50
2023-12-08T01:28:38.056Z,71.50
2023-12-08T01:31:06.367Z,71.50
2023-12-08T01:33:34.132Z,71.40
2023-12-08T01:36:38.140Z,71.40
2023-12-08T01:38:49.439Z,71.60
2023-12-08T01:41:20.922Z,71.60
2023-12-08T01:43:48.842Z,71.60
2023-12-08T01:46:18.116Z,71.60
2023-12-08T01:48:47.379Z,71.50
2023-12-08T01:51:17.073Z,71.50
2023-12-08T01:53:46.756Z,71.50
2023-12-08T01:56:16.381Z,71.60
2023-12-08T01:58:45.814Z,71.60
2023-12-08T02:01:13.512Z,71.60
2023-12-08T02:03:42.183Z,71.60
2023-12-08T02:06:10.934Z,71.60
2023-12-08T02:08:39.230Z,71.50
2023-12-08T02:11:07.268Z,71.50
2023-12-08T02:13:35.596Z,71.50
2023-12-08T02:16:20.154Z,71.60
2023-12-08T02:18:48.735Z,71.60
2023-12-08T02:21:17.289Z,71.70
2023-12-08T02:23:51.292Z,71.70
2023-12-08T02:26:21.260Z,71.70
2023-12-08T02:28:49.223Z,71.70
2023-12-08T02:31:24.178Z,71.70
2023-12-08T02:33:54.756Z,71.80
2023-12-08T02:36:22.806Z,71.70
2023-12-08T02:38:54.399Z,71.70
2023-12-08T02:41:22.263Z,71.70
2023-12-08T02:43:49.772Z,71.70
2023-12-08T02:46:17.622Z,71.70
2023-12-08T02:48:54.104Z,71.70
2023-12-08T02:51:23.470Z,71.70
2023-12-08T02:53:51.063Z,71.70
2023-12-08T02:56:18.580Z,71.70
2023-12-08T02:58:46.958Z,71.70
2023-12-08T03:01:16.247Z,71.70
2023-12-08T03:03:44.041Z,71.60
2023-12-08T03:06:11.839Z,71.50
2023-12-08T03:08:40.018Z,71.50
2023-12-08T03:11:07.492Z,71.50
2023-12-08T03:13:34.890Z,71.50
2023-12-08T03:16:02.411Z,71.40
2023-12-08T03:18:30.028Z,71.40
2023-12-08T03:20:57.781Z,71.40
2023-12-08T03:23:25.289Z,71.40
2023-12-08T03:25:52.833Z,71.40
2023-12-08T03:28:20.398Z,71.40
2023-12-08T03:30:47.934Z,71.40
2023-12-08T03:33:15.509Z,71.40
2023-12-08T03:35:43.436Z,71.40
2023-12-08T03:38:10.986Z,71.30
2023-12-08T03:40:38.608Z,71.30
2023-12-08T03:43:06.238Z,71.20
2023-12-08T03:45:33.939Z,71.10
2023-12-08T03:48:01.813Z,71.10
2023-12-08T03:50:29.762Z,71.20
2023-12-08T03:52:58.664Z,71.20
2023-12-08T03:55:26.189Z,71.20
2023-12-08T03:57:54.339Z,71.20
2023-12-08T04:00:22.013Z,71.20
2023-12-08T04:02:49.654Z,71.30
2023-12-08T04:05:17.511Z,71.30
2023-12-08T04:07:45.031Z,71.30
2023-12-08T04:10:12.485Z,71.30
2023-12-08T04:12:39.949Z,71.40
2023-12-08T04:15:09.068Z,71.40
2023-12-08T04:17:36.606Z,71.40
2023-12-08T04:20:04.651Z,71.40
2023-12-08T04:22:32.949Z,71.60
2023-12-08T04:25:00.439Z,71.60
2023-12-08T04:27:28.551Z,71.70
2023-12-08T04:29:56.334Z,71.70
2023-12-08T04:32:24.092Z,71.80
2023-12-08T04:34:52.872Z,71.90
2023-12-08T04:37:22.418Z,71.90
2023-12-08T04:39:50.952Z,71.80
2023-12-08T04:42:22.434Z,71.80
2023-12-08T04:44:53.296Z,71.70
2023-12-08T04:47:22.629Z,71.70
2023-12-08T04:49:51.629Z,71.60
2023-12-08T04:52:21.795Z,71.60
2023-12-08T04:54:53.203Z,71.60
2023-12-08T04:57:21.141Z,71.70
2023-12-08T04:59:49.362Z,71.70
2023-12-08T05:02:17.968Z,71.60
2023-12-08T05:04:47.932Z,71.60
2023-12-08T05:07:15.423Z,71.60
2023-12-08T05:09:42.801Z,71.60
2023-12-08T05:12:10.274Z,71.60
2023-12-08T05:14:37.784Z,71.60
2023-12-08T05:17:05.599Z,71.70
2023-12-08T05:19:33.260Z,71.70
2023-12-08T05:22:00.799Z,71.70
2023-12-08T05:24:28.610Z,71.60
2023-12-08T05:26:56.188Z,71.60
2023-12-08T05:29:23.750Z,71.50
2023-12-08T05:31:51.379Z,71.50
2023-12-08T05:34:18.976Z,71.50
2023-12-08T05:36:46.427Z,71.50
2023-12-08T05:39:14.009Z,71.50
2023-12-08T05:41:41.517Z,71.50
2023-12-08T05:44:08.864Z,71.50
2023-12-08T05:46:36.196Z,71.50
2023-12-08T05:49:04.276Z,71.50
2023-12-08T05:51:32.515Z,71.50
2023-12-08T05:54:00.115Z,71.40
2023-12-08T05:56:27.439Z,71.40
2023-12-08T05:58:55.227Z,71.40
2023-12-08T06:01:24.064Z,71.40
2023-12-08T06:03:52.102Z,71.40
2023-12-08T06:06:19.572Z,71.40
2023-12-08T06:08:46.962Z,71.40
2023-12-08T06:11:14.432Z,71.40
2023-12-08T06:13:49.018Z,71.50
2023-12-08T06:16:19.240Z,71.50
2023-12-08T06:18:57.969Z,71.60
2023-12-08T06:21:26.377Z,71.60
2023-12-08T06:23:53.698Z,71.60
2023-12-08T06:26:21.117Z,71.60
2023-12-08T06:28:48.524Z,71.60
2023-12-08T06:31:15.837Z,71.50
2023-12-08T06:33:43.160Z,71.50
2023-12-08T06:36:11.574Z,71.50
2023-12-08T06:38:40.383Z,71.50
2023-12-08T06:41:08.292Z,71.60
2023-12-08T06:43:35.610Z,71.60
2023-12-08T06:46:02.954Z,71.70
2023-12-08T06:50:57.860Z,71.70
2023-12-08T06:53:25.326Z,71.80
2023-12-08T06:55:52.770Z,71.80
2023-12-08T06:58:20.230Z,71.80
2023-12-08T07:00:47.616Z,71.80
2023-12-08T07:03:15.796Z,71.80
2023-12-08T07:05:43.435Z,71.70
2023-12-08T07:08:10.905Z,71.70
2023-12-08T07:10:38.690Z,71.70
2023-12-08T07:13:06.096Z,71.70
2023-12-08T07:15:33.471Z,71.70
2023-12-08T07:18:01.678Z,71.70
2023-12-08T07:20:29.790Z,71.70
2023-12-08T07:22:57.291Z,71.70
2023-12-08T07:25:25.771Z,71.80
2023-12-08T07:27:53.260Z,71.80
2023-12-08T07:30:20.832Z,71.80
2023-12-08T07:32:49.727Z,71.70
2023-12-08T07:35:18.641Z,71.80
2023-12-08T07:37:46.272Z,71.90
2023-12-08T07:40:16.529Z,71.90
2023-12-08T07:42:45.126Z,72.00
2023-12-08T07:45:12.614Z,72.00
2023-12-08T07:47:40.272Z,71.90
2023-12-08T07:50:09.261Z,71.90
2023-12-08T07:52:37.529Z,71.90
2023-12-08T07:55:06.975Z,71.90
2023-12-08T07:57:34.563Z,71.90
2023-12-08T08:00:02.440Z,71.70
2023-12-08T08:02:31.172Z,71.60
2023-12-08T08:04:58.673Z,71.50
2023-12-08T08:07:31.559Z,71.50
2023-12-08T08:09:59.548Z,71.50
2023-12-08T08:12:27.161Z,71.50
2023-12-08T08:14:54.637Z,71.50
2023-12-08T08:17:22.761Z,71.40
2023-12-08T08:19:50.434Z,71.40
2023-12-08T08:22:29.884Z,71.30
2023-12-08T08:25:01.486Z,71.20
2023-12-08T08:27:30.524Z,71.20
2023-12-08T08:29:59.306Z,71.30
2023-12-08T08:32:26.974Z,71.40
2023-12-08T08:34:57.901Z,71.60
2023-12-08T08:37:29.852Z,71.80
2023-12-08T08:39:58.207Z,71.90
2023-12-08T08:42:26.726Z,72.10
2023-12-08T08:44:55.703Z,72.20
2023-12-08T08:47:24.107Z,72.40
2023-12-08T08:49:52.430Z,72.40
2023-12-08T08:52:22.191Z,72.50
2023-12-08T08:54:51.536Z,72.50
2023-12-08T08:57:19.833Z,72.40
2023-12-08T08:59:48.627Z,72.40
2023-12-08T09:02:16.995Z,72.40
2023-12-08T09:04:48.901Z,72.40
2023-12-08T09:07:16.899Z,72.40
2023-12-08T09:09:46.071Z,72.40
2023-12-08T09:12:14.559Z,72.40
2023-12-08T09:14:43.665Z,72.40
2023-12-08T09:17:12.683Z,72.70
2023-12-08T09:19:42.766Z,72.90
2023-12-08T09:22:10.790Z,73.00
2023-12-08T09:24:42.495Z,73.10
2023-12-08T09:27:12.088Z,73.20
2023-12-08T09:29:40.074Z,73.40
2023-12-08T09:32:08.885Z,73.50
2023-12-08T09:34:37.692Z,73.70
2023-12-08T09:37:26.448Z,73.60
2023-12-08T09:39:55.134Z,73.40
2023-12-08T09:42:44.797Z,73.70
2023-12-08T09:45:14.492Z,73.80
2023-12-08T09:47:44.757Z,73.80
2023-12-08T09:50:14.941Z,73.80
2023-12-08T09:52:43.344Z,73.70
2023-12-08T09:55:12.366Z,73.70
2023-12-08T09:57:45.799Z,73.00
2023-12-08T10:00:15.390Z,72.90
2023-12-08T10:02:45.723Z,72.80
2023-12-08T10:05:13.947Z,72.40
2023-12-08T10:07:45.296Z,72.20
2023-12-08T10:10:13.231Z,72.10
2023-12-08T10:12:43.690Z,71.70
2023-12-08T10:15:15.862Z,71.90
2023-12-08T10:17:52.471Z,72.00
2023-12-08T10:20:22.786Z,72.50
2023-12-08T10:22:55.111Z,72.70
2023-12-08T10:25:26.999Z,72.90
2023-12-08T10:27:58.273Z,73.00
2023-12-08T10:30:29.505Z,73.00
2023-12-08T10:32:59.690Z,73.00
2023-12-08T10:35:28.345Z,72.90
2023-12-08T10:38:02.059Z,72.90
2023-12-08T10:40:53.671Z,72.80
2023-12-08T10:43:28.112Z,72.70
2023-12-08T10:45:59.145Z,72.20
2023-12-08T10:49:51.111Z,72.50
2023-12-08T10:53:12.647Z,72.10
2023-12-08T10:55:46.683Z,72.00
2023-12-08T10:58:19.028Z,72.20
2023-12-08T11:00:48.313Z,71.90
2023-12-08T11:03:23.622Z,71.80
2023-12-08T11:06:05.666Z,71.80
2023-12-08T11:08:37.169Z,71.70
2023-12-08T11:11:09.870Z,71.60
2023-12-08T11:13:47.925Z,71.60
2023-12-08T11:17:18.370Z,71.50
2023-12-08T11:19:48.963Z,71.20
2023-12-08T11:22:19.773Z,71.50
2023-12-08T11:24:52.194Z,71.40
2023-12-08T11:28:13.596Z,71.40
2023-12-08T11:30:59.977Z,70.90
2023-12-08T11:34:16.236Z,71.30
2023-12-08T11:36:53.213Z,70.80
2023-12-08T11:39:40.441Z,71.40
2023-12-08T11:42:16.160Z,71.10
2023-12-08T11:44:49.064Z,71.30
2023-12-08T11:47:25.610Z,71.40
2023-12-08T11:49:58.897Z,71.70
2023-12-08T11:52:38.509Z,71.90
2023-12-08T11:55:30.776Z,72.00
2023-12-08T11:58:05.552Z,72.20
2023-12-08T12:00:45.044Z,72.40
2023-12-08T12:03:14.067Z,72.40
2023-12-08T12:05:42.236Z,72.40
2023-12-08T12:08:10.936Z,72.40
2023-12-08T12:10:41.859Z,72.30
2023-12-08T12:13:16.157Z,71.60
2023-12-08T12:15:45.019Z,71.30
2023-12-08T12:18:15.530Z,71.10
2023-12-08T12:20:45.553Z,70.80
2023-12-08T12:23:16.724Z,70.30
2023-12-08T12:25:52.578Z,69.80
2023-12-08T12:28:21.695Z,69.60
2023-12-08T12:30:52.845Z,69.60
2023-12-08T12:33:23.557Z,69.50
2023-12-08T12:35:56.888Z,69.50
2023-12-08T12:38:28.632Z,69.50
2023-12-08T12:41:00.360Z,69.50
2023-12-08T12:43:32.117Z,69.20
2023-12-08T12:46:05.404Z,69.10
2023-12-08T12:48:35.447Z,68.50
2023-12-08T12:51:05.431Z,68.90
2023-12-08T12:53:47.993Z,68.70
2023-12-08T12:56:21.214Z,68.60
2023-12-08T12:59:13.069Z,68.90
2023-12-08T13:01:49.354Z,68.60
2023-12-08T13:04:18.991Z,68.80
2023-12-08T13:06:51.059Z,68.80
2023-12-08T13:09:30.736Z,68.90
2023-12-08T13:12:00.280Z,68.80
2023-12-08T13:14:29.214Z,69.00
2023-12-08T13:16:57.716Z,69.20
2023-12-08T13:19:27.304Z,69.30
2023-12-08T13:21:55.356Z,69.30
2023-12-08T13:24:23.733Z,69.20
2023-12-08T13:26:52.110Z,69.20
2023-12-08T13:29:19.600Z,69.30
2023-12-08T13:31:49.501Z,69.20
2023-12-08T13:34:17.877Z,69.00
2023-12-08T13:36:45.494Z,68.90
2023-12-08T13:39:24.877Z,69.00
2023-12-08T13:41:53.171Z,69.10
2023-12-08T13:44:21.533Z,69.00
2023-12-08T13:46:51.223Z,69.00
2023-12-08T13:49:19.808Z,68.90
2023-12-08T13:51:48.987Z,68.90
2023-12-08T13:54:17.125Z,68.90
2023-12-08T13:56:44.870Z,69.00
2023-12-08T13:59:12.763Z,68.90
2023-12-08T14:01:41.021Z,68.90
2023-12-08T14:04:09.278Z,69.10
2023-12-08T14:06:37.367Z,69.10
2023-12-08T14:09:05.435Z,69.00
2023-12-08T14:11:33.151Z,68.90
2023-12-08T14:14:00.874Z,69.00
2023-12-08T14:16:29.253Z,69.00
2023-12-08T14:18:57.067Z,69.00
2023-12-08T14:21:25.710Z,69.00
2023-12-08T14:23:56.687Z,69.10
2023-12-08T14:26:25.954Z,69.10
2023-12-08T14:29:15.290Z,69.10
2023-12-08T14:31:45.274Z,69.10
2023-12-08T14:34:16.805Z,69.10
2023-12-08T14:36:47.595Z,69.00
2023-12-08T14:39:17.298Z,68.90
2023-12-08T14:41:46.671Z,68.90
2023-12-08T14:44:19.977Z,68.90
2023-12-08T14:46:56.997Z,68.90
2023-12-08T14:49:28.153Z,68.90
2023-12-08T14:51:59.132Z,68.90
2023-12-08T14:54:32.520Z,68.80
2023-12-08T14:57:06.645Z,68.90
2023-12-08T14:59:34.572Z,68.90
2023-12-08T15:02:03.952Z,68.90
2023-12-08T15:04:32.355Z,68.90
2023-12-08T15:06:59.799Z,68.90
2023-12-08T15:09:27.678Z,68.90
2023-12-08T15:11:55.382Z,68.90
2023-12-08T15:14:22.738Z,68.90
2023-12-08T15:16:50.659Z,68.90
2023-12-08T15:19:18.699Z,69.00
2023-12-08T15:21:54.081Z,69.00
2023-12-08T15:24:22.403Z,69.00
2023-12-08T15:26:50.223Z,69.00
2023-12-08T15:29:17.585Z,69.00
2023-12-08T15:31:45.439Z,69.00
2023-12-08T15:34:14.188Z,69.10
2023-12-08T15:36:42.699Z,69.10
2023-12-08T15:39:13.539Z,69.10
2023-12-08T15:41:44.919Z,69.10
2023-12-08T15:44:12.428Z,69.20
2023-12-08T15:46:40.681Z,69.20
2023-12-08T15:49:09.428Z,69.20
2023-12-08T15:51:36.886Z,69.20
2023-12-08T15:54:05.316Z,69.10
2023-12-08T15:56:39.401Z,69.10
2023-12-08T15:59:07.401Z,69.20
2023-12-08T16:01:35.144Z,69.20
2023-12-08T16:04:02.762Z,69.20
2023-12-08T16:06:30.165Z,69.10
2023-12-08T16:08:58.792Z,69.10
2023-12-08T16:11:29.356Z,69.10
2023-12-08T16:13:57.421Z,69.10
2023-12-08T16:16:24.740Z,69.10
2023-12-08T16:18:52.451Z,69.10
2023-12-08T16:21:25.523Z,69.10
2023-12-08T16:23:54.431Z,69.20
2023-12-08T16:26:22.026Z,69.10
2023-12-08T16:28:49.383Z,69.10
2023-12-08T16:31:38.511Z,69.30
2023-12-08T16:34:29.918Z,69.30
2023-12-08T16:37:23.321Z,69.30
2023-12-08T16:40:12.361Z,69.30
2023-12-08T16:42:56.975Z,69.30
2023-12-08T16:45:35.267Z,69.30
2023-12-08T16:48:09.053Z,69.30
2023-12-08T16:50:42.796Z,69.30
2023-12-08T16:53:40.302Z,69.30
2023-12-08T16:56:14.477Z,69.20
2023-12-08T16:58:49.332Z,69.20
2023-12-08T17:01:35.860Z,69.20
2023-12-08T17:04:18.088Z,69.30
2023-12-08T17:07:01.401Z,69.40
2023-12-08T17:09:53.965Z,69.40
2023-12-08T17:12:34.505Z,69.40
2023-12-08T17:15:21.158Z,69.40
2023-12-08T17:20:49.180Z,69.40
2023-12-08T17:23:31.747Z,69.20
2023-12-08T17:26:36.755Z,69.40
2023-12-08T17:29:30.734Z,69.40
2023-12-08T17:38:05.331Z,69.50
2023-12-08T17:41:16.022Z,69.60
2023-12-08T17:44:03.534Z,69.60
2023-12-08T17:47:04.295Z,69.60
2023-12-08T17:49:49.273Z,69.70
2023-12-08T17:52:48.433Z,69.70
2023-12-08T17:55:46.759Z,69.70
2023-12-08T17:58:27.933Z,69.70
2023-12-08T18:04:00.130Z,69.80
2023-12-08T18:06:46.432Z,69.80
2023-12-08T18:09:17.587Z,69.80
2023-12-08T18:11:47.636Z,69.90
2023-12-08T18:14:16.802Z,69.90
2023-12-08T18:16:49.385Z,69.90
2023-12-08T18:19:22.724Z,70.00
2023-12-08T18:22:00.117Z,70.00
2023-12-08T18:24:27.675Z,70.00
2023-12-08T18:26:55.295Z,70.10
2023-12-08T18:29:22.758Z,70.10
2023-12-08T18:31:50.580Z,70.20
2023-12-08T18:34:18.648Z,70.20
2023-12-08T18:36:46.829Z,70.20
2023-12-08T18:39:14.328Z,70.30
2023-12-08T18:41:44.068Z,70.30
2023-12-08T18:44:14.453Z,70.30
2023-12-08T18:46:42.525Z,70.30
2023-12-08T18:49:11.630Z,70.30
2023-12-08T18:51:43.868Z,70.30
2023-12-08T18:54:12.062Z,70.30
2023-12-08T18:56:40.465Z,70.40
2023-12-08T18:59:09.034Z,70.40
2023-12-08T19:04:32.315Z,70.50
2023-12-08T19:07:01.763Z,70.50
2023-12-08T19:09:31.484Z,70.40
2023-12-08T19:16:09.263Z,70.40
2023-12-08T19:18:37.681Z,70.50
2023-12-08T19:21:07.393Z,70.50
2023-12-08T19:23:35.552Z,70.60
2023-12-08T19:26:08.600Z,70.70
2023-12-08T19:28:43.536Z,70.70
2023-12-08T19:34:55.248Z,70.90
2023-12-08T19:37:43.972Z,70.70
2023-12-08T19:40:13.672Z,70.80
2023-12-08T19:42:45.597Z,70.80
2023-12-08T19:48:56.036Z,70.90
2023-12-08T19:51:31.167Z,71.00
2023-12-08T19:57:42.012Z,71.00
2023-12-08T20:00:27.380Z,70.80
2023-12-08T20:02:57.604Z,70.90
2023-12-08T20:05:25.904Z,70.90
2023-12-08T20:07:53.686Z,71.00
2023-12-08T20:10:23.920Z,71.00
2023-12-08T20:12:53.352Z,71.00
2023-12-08T20:15:29.002Z,71.00
2023-12-08T20:18:02.421Z,71.00
2023-12-08T20:24:23.809Z,71.10
2023-12-08T20:27:27.156Z,71.10
2023-12-08T20:30:08.269Z,71.00
2023-12-08T20:32:57.726Z,71.00
2023-12-08T20:36:02.828Z,71.00
2023-12-08T20:38:57.317Z,71.00
2023-12-08T20:45:07.677Z,71.20
2023-12-08T20:55:14.774Z,71.20
2023-12-08T20:58:33.506Z,71.20
2023-12-08T21:01:48.876Z,71.20
2023-12-08T21:04:39.895Z,71.30
2023-12-08T21:08:00.198Z,71.20
2023-12-08T21:10:58.521Z,71.30
2023-12-08T21:14:15.858Z,71.20
2023-12-08T21:20:55.332Z,71.30
2023-12-08T21:36:43.863Z,71.40
2023-12-08T21:39:43.293Z,71.50
2023-12-08T21:49:12.472Z,71.50
2023-12-08T21:55:19.214Z,71.50
2023-12-08T21:58:03.927Z,71.50
2023-12-08T22:01:01.584Z,71.60
2023-12-08T22:03:42.727Z,71.60
2023-12-08T22:06:27.307Z,71.60
2023-12-08T22:09:10.589Z,71.60
2023-12-08T22:12:25.019Z,71.60
2023-12-08T22:15:15.678Z,71.70
2023-12-08T22:18:19.153Z,71.60
2023-12-08T22:21:23.019Z,71.60
2023-12-08T22:24:17.522Z,71.70
2023-12-08T22:27:11.346Z,71.70
2023-12-08T22:30:01.091Z,71.70
2023-12-08T22:32:43.487Z,71.70
2023-12-08T22:35:58.063Z,71.80
2023-12-08T22:38:46.698Z,71.90
2023-12-08T22:41:32.211Z,71.80
2023-12-08T22:43:59.637Z,71.80
2023-12-08T22:46:27.121Z,71.80
2023-12-08T22:48:55.523Z,71.80
2023-12-08T22:51:33.156Z,71.90
2023-12-08T22:54:10.698Z,71.90
2023-12-08T22:56:39.821Z,71.90
2023-12-08T22:59:23.662Z,71.90
2023-12-08T23:01:54.519Z,71.90
2023-12-08T23:04:22.117Z,71.90
2023-12-08T23:06:51.182Z,71.90
2023-12-08T23:09:19.080Z,71.90
2023-12-08T23:11:46.732Z,71.90
2023-12-08T23:14:14.567Z,72.00
2023-12-08T23:16:50.207Z,72.00
2023-12-08T23:19:18.276Z,72.00
2023-12-08T23:21:45.995Z,72.00
2023-12-08T23:24:13.451Z,72.00
2023-12-08T23:26:44.203Z,72.00
2023-12-08T23:29:11.691Z,72.00
2023-12-08T23:31:39.237Z,72.00
2023-12-08T23:34:07.593Z,72.00
2023-12-08T23:36:37.971Z,72.00
2023-12-08T23:39:05.641Z,72.10
2023-12-08T23:41:33.201Z,72.10
2023-12-08T23:44:00.610Z,72.10
2023-12-08T23:46:27.969Z,72.10
2023-12-08T23:48:59.465Z,72.10
2023-12-08T23:51:27.632Z,72.10
2023-12-08T23:53:55.197Z,72.10
2023-12-08T23:56:23.920Z,72.10
2023-12-08T23:58:51.597Z,72.10
